sensor_id;sensor_type;location;lat;lon;timestamp;P1;durP1;ratioP1;P2;durP2;ratioP2
46086;SDS011;31824;49.648;8.640;2023-02-28T00:00:03;1.20;;;0.40;;
46086;SDS011;31824;49.648;8.640;2023-02-28T00:03:12;0.52;;;0.32;;
46086;SDS011;31824;49.648;8.640;2023-02-28T00:06:15;1.05;;;0.45;;
46086;SDS011;31824;49.648;8.640;2023-02-28T00:09:17;0.85;;;0.38;;
46086;SDS011;31824;49.648;8.640;2023-02-28T00:12:19;1.00;;;0.50;;
46086;SDS011;31824;49.648;8.640;2023-02-28T00:15:21;0.60;;;0.30;;
46086;SDS011;31824;49.648;8.640;2023-02-28T00:18:24;2.28;;;0.68;;
46086;SDS011;31824;49.648;8.640;2023-02-28T00:21:27;0.95;;;0.52;;
46086;SDS011;31824;49.648;8.640;2023-02-28T00:24:29;0.98;;;0.77;;
46086;SDS011;31824;49.648;8.640;2023-02-28T00:27:31;1.15;;;0.40;;
46086;SDS011;31824;49.648;8.640;2023-02-28T00:30:39;0.47;;;0.20;;
46086;SDS011;31824;49.648;8.640;2023-02-28T00:33:42;0.93;;;0.57;;
46086;SDS011;31824;49.648;8.640;2023-02-28T00:36:45;1.17;;;0.40;;
46086;SDS011;31824;49.648;8.640;2023-02-28T00:39:50;2.00;;;0.70;;
46086;SDS011;31824;49.648;8.640;2023-02-28T00:42:52;1.95;;;0.68;;
46086;SDS011;31824;49.648;8.640;2023-02-28T00:45:54;1.67;;;0.68;;
46086;SDS011;31824;49.648;8.640;2023-02-28T00:48:56;1.08;;;0.63;;
46086;SDS011;31824;49.648;8.640;2023-02-28T00:51:59;1.33;;;0.90;;
46086;SDS011;31824;49.648;8.640;2023-02-28T00:55:00;0.88;;;0.45;;
46086;SDS011;31824;49.648;8.640;2023-02-28T00:58:02;2.08;;;0.77;;
46086;SDS011;31824;49.648;8.640;2023-02-28T01:01:05;0.63;;;0.40;;
46086;SDS011;31824;49.648;8.640;2023-02-28T01:04:08;1.95;;;0.82;;
46086;SDS011;31824;49.648;8.640;2023-02-28T01:07:11;1.88;;;0.70;;
46086;SDS011;31824;49.648;8.640;2023-02-28T01:10:13;1.05;;;0.60;;
46086;SDS011;31824;49.648;8.640;2023-02-28T01:13:15;0.80;;;0.60;;
46086;SDS011;31824;49.648;8.640;2023-02-28T01:16:17;0.73;;;0.50;;
46086;SDS011;31824;49.648;8.640;2023-02-28T01:19:19;1.02;;;0.63;;
46086;SDS011;31824;49.648;8.640;2023-02-28T01:22:23;3.28;;;0.80;;
46086;SDS011;31824;49.648;8.640;2023-02-28T01:25:24;2.10;;;0.40;;
46086;SDS011;31824;49.648;8.640;2023-02-28T01:28:26;2.17;;;0.85;;
46086;SDS011;31824;49.648;8.640;2023-02-28T01:31:30;0.50;;;0.40;;
46086;SDS011;31824;49.648;8.640;2023-02-28T01:34:33;0.60;;;0.50;;
46086;SDS011;31824;49.648;8.640;2023-02-28T01:37:36;0.77;;;0.38;;
46086;SDS011;31824;49.648;8.640;2023-02-28T01:40:38;0.75;;;0.50;;
46086;SDS011;31824;49.648;8.640;2023-02-28T01:43:52;3.33;;;0.60;;
46086;SDS011;31824;49.648;8.640;2023-02-28T01:46:59;3.15;;;0.63;;
46086;SDS011;31824;49.648;8.640;2023-02-28T01:50:02;2.20;;;0.95;;
46086;SDS011;31824;49.648;8.640;2023-02-28T01:53:12;2.05;;;0.80;;
46086;SDS011;31824;49.648;8.640;2023-02-28T01:56:18;1.17;;;0.77;;
46086;SDS011;31824;49.648;8.640;2023-02-28T02:02:29;0.55;;;0.32;;
46086;SDS011;31824;49.648;8.640;2023-02-28T03:21:31;4.82;;;0.88;;
46086;SDS011;31824;49.648;8.640;2023-02-28T03:29:31;0.75;;;0.30;;
46086;SDS011;31824;49.648;8.640;2023-02-28T03:33:04;0.70;;;0.43;;
46086;SDS011;31824;49.648;8.640;2023-02-28T03:36:43;0.77;;;0.70;;
46086;SDS011;31824;49.648;8.640;2023-02-28T03:40:06;1.15;;;0.40;;
46086;SDS011;31824;49.648;8.640;2023-02-28T03:43:48;1.83;;;0.93;;
46086;SDS011;31824;49.648;8.640;2023-02-28T03:48:32;0.80;;;0.35;;
46086;SDS011;31824;49.648;8.640;2023-02-28T03:52:25;0.75;;;0.43;;
46086;SDS011;31824;49.648;8.640;2023-02-28T03:56:05;1.10;;;0.57;;
46086;SDS011;31824;49.648;8.640;2023-02-28T04:00:45;1.23;;;0.68;;
46086;SDS011;31824;49.648;8.640;2023-02-28T04:04:36;0.98;;;0.50;;
46086;SDS011;31824;49.648;8.640;2023-02-28T04:08:11;1.85;;;0.80;;
46086;SDS011;31824;49.648;8.640;2023-02-28T04:11:20;0.73;;;0.55;;
46086;SDS011;31824;49.648;8.640;2023-02-28T04:14:36;1.08;;;0.70;;
46086;SDS011;31824;49.648;8.640;2023-02-28T04:18:46;1.08;;;0.73;;
46086;SDS011;31824;49.648;8.640;2023-02-28T04:22:39;1.60;;;1.02;;
46086;SDS011;31824;49.648;8.640;2023-02-28T04:25:58;1.13;;;0.55;;
46086;SDS011;31824;49.648;8.640;2023-02-28T04:29:22;1.85;;;0.55;;
46086;SDS011;31824;49.648;8.640;2023-02-28T04:34:21;2.13;;;1.05;;
46086;SDS011;31824;49.648;8.640;2023-02-28T04:38:32;0.50;;;0.40;;
46086;SDS011;31824;49.648;8.640;2023-02-28T04:41:41;0.85;;;0.47;;
46086;SDS011;31824;49.648;8.640;2023-02-28T04:45:00;2.05;;;0.82;;
46086;SDS011;31824;49.648;8.640;2023-02-28T04:49:30;0.57;;;0.45;;
46086;SDS011;31824;49.648;8.640;2023-02-28T04:52:39;0.68;;;0.32;;
46086;SDS011;31824;49.648;8.640;2023-02-28T05:01:02;1.23;;;0.65;;
46086;SDS011;31824;49.648;8.640;2023-02-28T05:04:49;1.35;;;0.93;;
46086;SDS011;31824;49.648;8.640;2023-02-28T05:09:03;0.45;;;0.35;;
46086;SDS011;31824;49.648;8.640;2023-02-28T05:23:31;1.05;;;0.50;;
46086;SDS011;31824;49.648;8.640;2023-02-28T05:26:58;1.17;;;0.70;;
46086;SDS011;31824;49.648;8.640;2023-02-28T05:32:26;1.70;;;0.77;;
46086;SDS011;31824;49.648;8.640;2023-02-28T05:36:39;1.58;;;0.63;;
46086;SDS011;31824;49.648;8.640;2023-02-28T05:45:06;1.85;;;0.90;;
46086;SDS011;31824;49.648;8.640;2023-02-28T05:48:10;2.50;;;0.73;;
46086;SDS011;31824;49.648;8.640;2023-02-28T05:51:12;1.55;;;0.65;;
46086;SDS011;31824;49.648;8.640;2023-02-28T05:54:13;0.57;;;0.40;;
46086;SDS011;31824;49.648;8.640;2023-02-28T05:57:15;1.02;;;0.52;;
46086;SDS011;31824;49.648;8.640;2023-02-28T06:00:26;0.98;;;0.82;;
46086;SDS011;31824;49.648;8.640;2023-02-28T06:03:29;2.85;;;1.48;;
46086;SDS011;31824;49.648;8.640;2023-02-28T06:06:31;3.38;;;1.25;;
46086;SDS011;31824;49.648;8.640;2023-02-28T06:09:37;1.15;;;0.60;;
46086;SDS011;31824;49.648;8.640;2023-02-28T06:12:39;1.58;;;0.60;;
46086;SDS011;31824;49.648;8.640;2023-02-28T06:15:44;1.58;;;0.75;;
46086;SDS011;31824;49.648;8.640;2023-02-28T06:18:45;1.65;;;0.90;;
46086;SDS011;31824;49.648;8.640;2023-02-28T06:21:49;1.42;;;0.88;;
46086;SDS011;31824;49.648;8.640;2023-02-28T06:24:53;0.95;;;0.55;;
46086;SDS011;31824;49.648;8.640;2023-02-28T06:27:56;1.65;;;0.85;;
46086;SDS011;31824;49.648;8.640;2023-02-28T06:30:59;1.08;;;0.73;;
46086;SDS011;31824;49.648;8.640;2023-02-28T06:34:01;7.45;;;0.90;;
46086;SDS011;31824;49.648;8.640;2023-02-28T06:37:02;0.95;;;0.52;;
46086;SDS011;31824;49.648;8.640;2023-02-28T06:40:05;2.30;;;0.90;;
46086;SDS011;31824;49.648;8.640;2023-02-28T06:43:08;1.83;;;1.08;;
46086;SDS011;31824;49.648;8.640;2023-02-28T06:46:12;0.43;;;0.35;;
46086;SDS011;31824;49.648;8.640;2023-02-28T06:49:16;1.63;;;1.13;;
46086;SDS011;31824;49.648;8.640;2023-02-28T06:52:18;1.02;;;0.85;;
46086;SDS011;31824;49.648;8.640;2023-02-28T06:55:23;1.30;;;0.60;;
46086;SDS011;31824;49.648;8.640;2023-02-28T06:58:25;1.50;;;0.77;;
46086;SDS011;31824;49.648;8.640;2023-02-28T07:01:28;2.53;;;1.00;;
46086;SDS011;31824;49.648;8.640;2023-02-28T07:04:31;0.80;;;0.50;;
46086;SDS011;31824;49.648;8.640;2023-02-28T07:07:33;0.80;;;0.57;;
46086;SDS011;31824;49.648;8.640;2023-02-28T07:10:36;2.08;;;0.82;;
46086;SDS011;31824;49.648;8.640;2023-02-28T07:13:38;3.78;;;1.38;;
46086;SDS011;31824;49.648;8.640;2023-02-28T07:16:41;1.08;;;0.73;;
46086;SDS011;31824;49.648;8.640;2023-02-28T07:19:43;0.60;;;0.32;;
46086;SDS011;31824;49.648;8.640;2023-02-28T07:22:45;4.43;;;0.80;;
46086;SDS011;31824;49.648;8.640;2023-02-28T07:25:47;0.28;;;0.17;;
46086;SDS011;31824;49.648;8.640;2023-02-28T07:28:50;0.90;;;0.30;;
46086;SDS011;31824;49.648;8.640;2023-02-28T07:31:53;1.30;;;0.65;;
46086;SDS011;31824;49.648;8.640;2023-02-28T07:34:55;1.00;;;0.43;;
46086;SDS011;31824;49.648;8.640;2023-02-28T07:37:57;0.65;;;0.10;;
46086;SDS011;31824;49.648;8.640;2023-02-28T07:40:59;0.95;;;0.55;;
46086;SDS011;31824;49.648;8.640;2023-02-28T07:44:01;0.28;;;0.20;;
46086;SDS011;31824;49.648;8.640;2023-02-28T07:47:05;2.33;;;0.73;;
46086;SDS011;31824;49.648;8.640;2023-02-28T07:50:09;2.03;;;0.57;;
46086;SDS011;31824;49.648;8.640;2023-02-28T07:53:12;0.75;;;0.45;;
46086;SDS011;31824;49.648;8.640;2023-02-28T07:56:14;0.80;;;0.60;;
46086;SDS011;31824;49.648;8.640;2023-02-28T07:59:16;0.82;;;0.60;;
46086;SDS011;31824;49.648;8.640;2023-02-28T08:02:19;0.00;;;0.00;;
46086;SDS011;31824;49.648;8.640;2023-02-28T08:05:21;0.95;;;0.38;;
46086;SDS011;31824;49.648;8.640;2023-02-28T08:08:23;1.38;;;0.55;;
46086;SDS011;31824;49.648;8.640;2023-02-28T08:11:25;6.07;;;1.33;;
46086;SDS011;31824;49.648;8.640;2023-02-28T08:14:26;1.55;;;0.60;;
46086;SDS011;31824;49.648;8.640;2023-02-28T08:17:30;1.08;;;0.57;;
46086;SDS011;31824;49.648;8.640;2023-02-28T08:20:35;1.45;;;0.55;;
46086;SDS011;31824;49.648;8.640;2023-02-28T08:23:37;1.33;;;0.43;;
46086;SDS011;31824;49.648;8.640;2023-02-28T08:26:40;2.75;;;1.33;;
46086;SDS011;31824;49.648;8.640;2023-02-28T08:29:42;1.75;;;0.93;;
46086;SDS011;31824;49.648;8.640;2023-02-28T08:32:44;2.10;;;0.90;;
46086;SDS011;31824;49.648;8.640;2023-02-28T08:35:46;1.15;;;0.73;;
46086;SDS011;31824;49.648;8.640;2023-02-28T08:38:48;0.30;;;0.10;;
46086;SDS011;31824;49.648;8.640;2023-02-28T08:41:50;3.25;;;1.52;;
46086;SDS011;31824;49.648;8.640;2023-02-28T08:45:06;0.47;;;0.20;;
46086;SDS011;31824;49.648;8.640;2023-02-28T08:48:10;3.25;;;1.20;;
46086;SDS011;31824;49.648;8.640;2023-02-28T08:51:12;0.70;;;0.38;;
46086;SDS011;31824;49.648;8.640;2023-02-28T08:54:17;1.15;;;0.43;;
46086;SDS011;31824;49.648;8.640;2023-02-28T08:57:20;3.60;;;1.20;;
46086;SDS011;31824;49.648;8.640;2023-02-28T09:00:22;2.72;;;1.38;;
46086;SDS011;31824;49.648;8.640;2023-02-28T09:03:26;2.00;;;0.90;;
46086;SDS011;31824;49.648;8.640;2023-02-28T09:06:30;0.93;;;0.52;;
46086;SDS011;31824;49.648;8.640;2023-02-28T09:09:33;1.30;;;0.63;;
46086;SDS011;31824;49.648;8.640;2023-02-28T09:12:35;1.33;;;0.90;;
46086;SDS011;31824;49.648;8.640;2023-02-28T09:15:37;2.60;;;1.35;;
46086;SDS011;31824;49.648;8.640;2023-02-28T09:18:40;4.63;;;1.88;;
46086;SDS011;31824;49.648;8.640;2023-02-28T09:21:42;2.97;;;1.10;;
46086;SDS011;31824;49.648;8.640;2023-02-28T09:24:44;1.80;;;1.02;;
46086;SDS011;31824;49.648;8.640;2023-02-28T09:27:46;2.40;;;0.98;;
46086;SDS011;31824;49.648;8.640;2023-02-28T09:30:50;2.47;;;1.30;;
46086;SDS011;31824;49.648;8.640;2023-02-28T09:33:55;5.95;;;1.05;;
46086;SDS011;31824;49.648;8.640;2023-02-28T09:36:58;3.60;;;1.60;;
46086;SDS011;31824;49.648;8.640;2023-02-28T09:40:00;1.50;;;0.40;;
46086;SDS011;31824;49.648;8.640;2023-02-28T09:43:02;2.65;;;1.17;;
46086;SDS011;31824;49.648;8.640;2023-02-28T09:46:05;3.53;;;1.52;;
46086;SDS011;31824;49.648;8.640;2023-02-28T09:49:17;3.75;;;1.85;;
46086;SDS011;31824;49.648;8.640;2023-02-28T09:52:25;2.63;;;1.30;;
46086;SDS011;31824;49.648;8.640;2023-02-28T09:55:30;1.88;;;0.93;;
46086;SDS011;31824;49.648;8.640;2023-02-28T09:58:48;0.10;;;0.10;;
46086;SDS011;31824;49.648;8.640;2023-02-28T10:01:54;4.07;;;1.38;;
46086;SDS011;31824;49.648;8.640;2023-02-28T10:05:04;3.33;;;1.20;;
46086;SDS011;31824;49.648;8.640;2023-02-28T10:08:11;3.80;;;1.42;;
46086;SDS011;31824;49.648;8.640;2023-02-28T10:11:16;0.65;;;0.45;;
46086;SDS011;31824;49.648;8.640;2023-02-28T10:14:20;3.33;;;1.15;;
46086;SDS011;31824;49.648;8.640;2023-02-28T10:17:24;3.30;;;0.90;;
46086;SDS011;31824;49.648;8.640;2023-02-28T10:20:57;2.40;;;1.33;;
46086;SDS011;31824;49.648;8.640;2023-02-28T10:24:02;4.57;;;1.10;;
46086;SDS011;31824;49.648;8.640;2023-02-28T10:27:12;0.98;;;0.43;;
46086;SDS011;31824;49.648;8.640;2023-02-28T10:30:15;1.48;;;0.82;;
46086;SDS011;31824;49.648;8.640;2023-02-28T10:33:19;1.90;;;1.02;;
46086;SDS011;31824;49.648;8.640;2023-02-28T10:36:26;3.55;;;1.60;;
46086;SDS011;31824;49.648;8.640;2023-02-28T10:39:35;2.30;;;1.08;;
46086;SDS011;31824;49.648;8.640;2023-02-28T10:42:42;2.83;;;1.30;;
46086;SDS011;31824;49.648;8.640;2023-02-28T10:46:01;3.17;;;1.63;;
46086;SDS011;31824;49.648;8.640;2023-02-28T10:49:05;2.88;;;1.35;;
46086;SDS011;31824;49.648;8.640;2023-02-28T10:52:15;1.05;;;0.28;;
46086;SDS011;31824;49.648;8.640;2023-02-28T10:55:35;2.25;;;0.77;;
46086;SDS011;31824;49.648;8.640;2023-02-28T10:58:49;3.10;;;1.58;;
46086;SDS011;31824;49.648;8.640;2023-02-28T11:01:56;2.00;;;0.82;;
46086;SDS011;31824;49.648;8.640;2023-02-28T11:04:57;2.92;;;1.23;;
46086;SDS011;31824;49.648;8.640;2023-02-28T11:08:04;3.33;;;1.30;;
46086;SDS011;31824;49.648;8.640;2023-02-28T11:11:12;3.25;;;1.95;;
46086;SDS011;31824;49.648;8.640;2023-02-28T11:14:17;3.70;;;1.80;;
46086;SDS011;31824;49.648;8.640;2023-02-28T11:17:22;2.97;;;1.45;;
46086;SDS011;31824;49.648;8.640;2023-02-28T11:20:27;3.60;;;1.90;;
46086;SDS011;31824;49.648;8.640;2023-02-28T11:23:33;3.85;;;1.88;;
46086;SDS011;31824;49.648;8.640;2023-02-28T11:26:39;2.05;;;0.90;;
46086;SDS011;31824;49.648;8.640;2023-02-28T11:29:46;4.00;;;1.88;;
46086;SDS011;31824;49.648;8.640;2023-02-28T11:32:49;5.10;;;2.08;;
46086;SDS011;31824;49.648;8.640;2023-02-28T11:35:51;5.20;;;2.38;;
46086;SDS011;31824;49.648;8.640;2023-02-28T11:38:59;2.00;;;0.55;;
46086;SDS011;31824;49.648;8.640;2023-02-28T11:42:12;4.60;;;1.95;;
46086;SDS011;31824;49.648;8.640;2023-02-28T11:45:31;2.72;;;0.50;;
46086;SDS011;31824;49.648;8.640;2023-02-28T11:48:47;1.13;;;0.55;;
46086;SDS011;31824;49.648;8.640;2023-02-28T11:51:57;2.97;;;1.45;;
46086;SDS011;31824;49.648;8.640;2023-02-28T11:55:07;5.03;;;2.15;;
46086;SDS011;31824;49.648;8.640;2023-02-28T11:58:19;3.55;;;1.85;;
46086;SDS011;31824;49.648;8.640;2023-02-28T12:01:36;0.35;;;0.17;;
46086;SDS011;31824;49.648;8.640;2023-02-28T12:04:46;3.05;;;1.58;;
46086;SDS011;31824;49.648;8.640;2023-02-28T12:08:01;5.55;;;1.75;;
46086;SDS011;31824;49.648;8.640;2023-02-28T12:11:13;2.85;;;1.33;;
46086;SDS011;31824;49.648;8.640;2023-02-28T12:14:30;0.85;;;0.30;;
46086;SDS011;31824;49.648;8.640;2023-02-28T12:17:51;3.75;;;1.75;;
46086;SDS011;31824;49.648;8.640;2023-02-28T12:24:10;1.30;;;0.60;;
46086;SDS011;31824;49.648;8.640;2023-02-28T12:27:28;5.38;;;1.63;;
46086;SDS011;31824;49.648;8.640;2023-02-28T12:30:33;4.43;;;1.98;;
46086;SDS011;31824;49.648;8.640;2023-02-28T12:33:39;0.88;;;0.57;;
46086;SDS011;31824;49.648;8.640;2023-02-28T12:36:46;0.85;;;0.52;;
46086;SDS011;31824;49.648;8.640;2023-02-28T12:39:51;4.60;;;1.80;;
46086;SDS011;31824;49.648;8.640;2023-02-28T12:42:59;3.22;;;0.82;;
46086;SDS011;31824;49.648;8.640;2023-02-28T12:46:07;2.80;;;1.25;;
46086;SDS011;31824;49.648;8.640;2023-02-28T12:49:16;6.20;;;1.95;;
46086;SDS011;31824;49.648;8.640;2023-02-28T12:52:25;3.20;;;1.60;;
46086;SDS011;31824;49.648;8.640;2023-02-28T12:55:39;5.63;;;2.00;;
46086;SDS011;31824;49.648;8.640;2023-02-28T12:58:47;4.18;;;1.80;;
46086;SDS011;31824;49.648;8.640;2023-02-28T13:01:57;5.30;;;1.77;;
46086;SDS011;31824;49.648;8.640;2023-02-28T13:05:14;1.38;;;0.90;;
46086;SDS011;31824;49.648;8.640;2023-02-28T13:08:48;7.70;;;1.63;;
46086;SDS011;31824;49.648;8.640;2023-02-28T13:12:12;4.15;;;1.88;;
46086;SDS011;31824;49.648;8.640;2023-02-28T13:15:18;7.65;;;2.45;;
46086;SDS011;31824;49.648;8.640;2023-02-28T13:18:30;5.13;;;2.00;;
46086;SDS011;31824;49.648;8.640;2023-02-28T13:21:35;4.32;;;2.00;;
46086;SDS011;31824;49.648;8.640;2023-02-28T13:24:45;4.97;;;2.33;;
46086;SDS011;31824;49.648;8.640;2023-02-28T13:27:49;1.10;;;0.52;;
46086;SDS011;31824;49.648;8.640;2023-02-28T13:31:06;3.63;;;1.77;;
46086;SDS011;31824;49.648;8.640;2023-02-28T13:34:12;4.43;;;2.55;;
46086;SDS011;31824;49.648;8.640;2023-02-28T13:40:45;3.10;;;1.65;;
46086;SDS011;31824;49.648;8.640;2023-02-28T13:43:59;4.07;;;1.55;;
46086;SDS011;31824;49.648;8.640;2023-02-28T13:47:21;3.33;;;1.67;;
46086;SDS011;31824;49.648;8.640;2023-02-28T13:50:30;3.60;;;1.85;;
46086;SDS011;31824;49.648;8.640;2023-02-28T13:53:52;4.07;;;2.10;;
46086;SDS011;31824;49.648;8.640;2023-02-28T13:57:08;3.08;;;1.45;;
46086;SDS011;31824;49.648;8.640;2023-02-28T14:00:28;4.68;;;2.03;;
46086;SDS011;31824;49.648;8.640;2023-02-28T14:03:51;5.00;;;1.70;;
46086;SDS011;31824;49.648;8.640;2023-02-28T14:07:08;4.78;;;2.10;;
46086;SDS011;31824;49.648;8.640;2023-02-28T14:10:22;2.90;;;1.52;;
46086;SDS011;31824;49.648;8.640;2023-02-28T14:13:38;5.28;;;2.33;;
46086;SDS011;31824;49.648;8.640;2023-02-28T14:16:49;3.83;;;2.00;;
46086;SDS011;31824;49.648;8.640;2023-02-28T14:19:52;5.20;;;2.35;;
46086;SDS011;31824;49.648;8.640;2023-02-28T14:22:56;3.92;;;1.95;;
46086;SDS011;31824;49.648;8.640;2023-02-28T14:26:10;5.93;;;2.38;;
46086;SDS011;31824;49.648;8.640;2023-02-28T14:29:30;5.25;;;2.20;;
46086;SDS011;31824;49.648;8.640;2023-02-28T14:32:45;4.47;;;1.98;;
46086;SDS011;31824;49.648;8.640;2023-02-28T14:36:03;4.00;;;2.17;;
46086;SDS011;31824;49.648;8.640;2023-02-28T14:39:11;2.92;;;1.50;;
46086;SDS011;31824;49.648;8.640;2023-02-28T14:42:27;4.07;;;1.85;;
46086;SDS011;31824;49.648;8.640;2023-02-28T14:45:30;3.42;;;1.70;;
46086;SDS011;31824;49.648;8.640;2023-02-28T14:48:33;4.25;;;2.13;;
46086;SDS011;31824;49.648;8.640;2023-02-28T14:51:38;5.03;;;2.33;;
46086;SDS011;31824;49.648;8.640;2023-02-28T14:54:40;3.92;;;2.05;;
46086;SDS011;31824;49.648;8.640;2023-02-28T14:57:50;4.10;;;1.80;;
46086;SDS011;31824;49.648;8.640;2023-02-28T15:00:54;5.28;;;1.40;;
46086;SDS011;31824;49.648;8.640;2023-02-28T15:03:58;3.38;;;1.85;;
46086;SDS011;31824;49.648;8.640;2023-02-28T15:07:10;3.70;;;1.83;;
46086;SDS011;31824;49.648;8.640;2023-02-28T15:10:16;4.65;;;1.95;;
46086;SDS011;31824;49.648;8.640;2023-02-28T15:16:22;5.45;;;2.10;;
46086;SDS011;31824;49.648;8.640;2023-02-28T15:19:27;6.78;;;2.13;;
46086;SDS011;31824;49.648;8.640;2023-02-28T15:22:35;3.15;;;1.65;;
46086;SDS011;31824;49.648;8.640;2023-02-28T15:25:39;4.47;;;2.28;;
46086;SDS011;31824;49.648;8.640;2023-02-28T15:28:43;6.40;;;2.60;;
46086;SDS011;31824;49.648;8.640;2023-02-28T15:31:46;4.93;;;2.10;;
46086;SDS011;31824;49.648;8.640;2023-02-28T15:34:59;4.10;;;2.20;;
46086;SDS011;31824;49.648;8.640;2023-02-28T15:38:23;2.40;;;1.27;;
46086;SDS011;31824;49.648;8.640;2023-02-28T15:41:27;2.30;;;1.45;;
46086;SDS011;31824;49.648;8.640;2023-02-28T15:44:33;5.85;;;2.42;;
46086;SDS011;31824;49.648;8.640;2023-02-28T15:47:38;6.00;;;2.45;;
46086;SDS011;31824;49.648;8.640;2023-02-28T15:50:41;1.23;;;0.90;;
46086;SDS011;31824;49.648;8.640;2023-02-28T15:53:46;4.22;;;2.15;;
46086;SDS011;31824;49.648;8.640;2023-02-28T15:56:50;3.60;;;1.75;;
46086;SDS011;31824;49.648;8.640;2023-02-28T15:59:55;3.92;;;1.73;;
46086;SDS011;31824;49.648;8.640;2023-02-28T16:03:00;5.45;;;2.20;;
46086;SDS011;31824;49.648;8.640;2023-02-28T16:06:08;3.40;;;1.90;;
46086;SDS011;31824;49.648;8.640;2023-02-28T16:12:29;7.60;;;1.98;;
46086;SDS011;31824;49.648;8.640;2023-02-28T16:15:35;4.93;;;2.13;;
46086;SDS011;31824;49.648;8.640;2023-02-28T16:18:43;3.97;;;1.83;;
46086;SDS011;31824;49.648;8.640;2023-02-28T16:21:45;5.95;;;2.10;;
46086;SDS011;31824;49.648;8.640;2023-02-28T16:24:48;4.43;;;2.13;;
46086;SDS011;31824;49.648;8.640;2023-02-28T16:27:51;8.60;;;2.67;;
46086;SDS011;31824;49.648;8.640;2023-02-28T16:30:55;3.30;;;1.63;;
46086;SDS011;31824;49.648;8.640;2023-02-28T16:33:57;4.60;;;2.50;;
46086;SDS011;31824;49.648;8.640;2023-02-28T16:36:59;3.90;;;1.83;;
46086;SDS011;31824;49.648;8.640;2023-02-28T16:40:02;4.47;;;1.80;;
46086;SDS011;31824;49.648;8.640;2023-02-28T16:43:05;4.72;;;2.20;;
46086;SDS011;31824;49.648;8.640;2023-02-28T16:46:14;4.68;;;2.00;;
46086;SDS011;31824;49.648;8.640;2023-02-28T16:49:17;5.18;;;1.75;;
46086;SDS011;31824;49.648;8.640;2023-02-28T16:52:19;3.50;;;1.70;;
46086;SDS011;31824;49.648;8.640;2023-02-28T16:55:23;4.72;;;2.10;;
46086;SDS011;31824;49.648;8.640;2023-02-28T16:58:26;4.53;;;1.92;;
46086;SDS011;31824;49.648;8.640;2023-02-28T17:01:29;4.53;;;1.83;;
46086;SDS011;31824;49.648;8.640;2023-02-28T17:04:32;4.57;;;2.00;;
46086;SDS011;31824;49.648;8.640;2023-02-28T17:07:34;3.60;;;1.83;;
46086;SDS011;31824;49.648;8.640;2023-02-28T17:10:37;5.10;;;2.13;;
46086;SDS011;31824;49.648;8.640;2023-02-28T17:13:39;3.92;;;2.13;;
46086;SDS011;31824;49.648;8.640;2023-02-28T17:16:41;6.38;;;2.80;;
46086;SDS011;31824;49.648;8.640;2023-02-28T17:19:43;3.22;;;1.35;;
46086;SDS011;31824;49.648;8.640;2023-02-28T17:22:45;4.45;;;1.70;;
46086;SDS011;31824;49.648;8.640;2023-02-28T17:25:49;3.38;;;1.70;;
46086;SDS011;31824;49.648;8.640;2023-02-28T17:28:58;3.88;;;1.88;;
46086;SDS011;31824;49.648;8.640;2023-02-28T17:32:00;5.68;;;2.10;;
46086;SDS011;31824;49.648;8.640;2023-02-28T17:35:17;5.18;;;2.15;;
46086;SDS011;31824;49.648;8.640;2023-02-28T17:38:19;5.13;;;1.70;;
46086;SDS011;31824;49.648;8.640;2023-02-28T17:41:25;4.75;;;2.10;;
46086;SDS011;31824;49.648;8.640;2023-02-28T17:44:31;4.20;;;1.80;;
46086;SDS011;31824;49.648;8.640;2023-02-28T17:47:34;4.90;;;2.03;;
46086;SDS011;31824;49.648;8.640;2023-02-28T17:50:36;9.38;;;2.20;;
46086;SDS011;31824;49.648;8.640;2023-02-28T17:53:38;4.40;;;1.80;;
46086;SDS011;31824;49.648;8.640;2023-02-28T17:56:41;4.43;;;2.22;;
46086;SDS011;31824;49.648;8.640;2023-02-28T17:59:44;3.97;;;1.88;;
46086;SDS011;31824;49.648;8.640;2023-02-28T18:02:49;10.02;;;2.67;;
46086;SDS011;31824;49.648;8.640;2023-02-28T18:05:51;4.72;;;2.17;;
46086;SDS011;31824;49.648;8.640;2023-02-28T18:08:53;4.97;;;2.15;;
46086;SDS011;31824;49.648;8.640;2023-02-28T18:11:56;5.55;;;2.00;;
46086;SDS011;31824;49.648;8.640;2023-02-28T18:14:58;4.28;;;1.77;;
